Time;durP1;ratioP1;P1;durP2;ratioP2;P2;SDS_P1;SDS_P2;PMS_P1;PMS_P2;Temp;Humidity;BMP_temperature;BMP_pressure;BME280_temperature;BME280_humidity;BME280_pressure;Samples;Min_cycle;Max_cycle;Signal;HPM_P1;HPM_P2
2022/08/30 00:02:34;;;;;;;15.02;8.65;;;;;;;;;;4419356;32;20255;-86
2022/08/30 00:05:03;;;;;;;13.45;8.70;;;;;;;;;;4418684;32;20514;-86
2022/08/30 00:07:31;;;;;;;10.25;8.35;;;;;;;;;;4418659;32;20573;-85
2022/08/30 00:10:01;;;;;;;13.90;9.43;;;;;;;;;;4418931;32;20696;-86
2022/08/30 00:12:31;;;;;;;14.30;7.95;;;;;;;;;;4418887;32;20543;-86
2022/08/30 00:14:59;;;;;;;12.30;8.07;;;;;;;;;;4419088;32;20632;-85
2022/08/30 00:17:26;;;;;;;11.98;8.05;;;;;;;;;;4419743;32;20381;-90
2022/08/30 00:19:54;;;;;;;13.60;8.80;;;;;;;;;;4420856;32;20531;-86
2022/08/30 00:22:22;;;;;;;16.48;9.75;;;;;;;;;;4419344;32;20647;-85
2022/08/30 00:24:50;;;;;;;14.32;8.23;;;;;;;;;;4419106;32;20562;-87
2022/08/30 00:27:19;;;;;;;13.27;9.25;;;;;;;;;;4418738;32;20480;-86
2022/08/30 00:29:47;;;;;;;15.68;9.60;;;;;;;;;;4418488;32;20640;-88
2022/08/30 00:32:15;;;;;;;20.33;9.23;;;;;;;;;;4418354;32;20542;-87
2022/08/30 00:34:43;;;;;;;17.15;8.45;;;;;;;;;;4418785;32;20224;-86
2022/08/30 00:37:12;;;;;;;15.48;8.07;;;;;;;;;;4418310;32;20268;-86
2022/08/30 00:39:39;;;;;;;18.12;8.55;;;;;;;;;;4418343;32;20679;-86
2022/08/30 00:42:08;;;;;;;12.13;9.38;;;;;;;;;;4418689;32;20627;-86
2022/08/30 00:44:37;;;;;;;13.50;9.60;;;;;;;;;;4418248;32;20553;-86
2022/08/30 00:47:04;;;;;;;12.65;9.50;;;;;;;;;;4418212;32;20287;-85
2022/08/30 00:49:32;;;;;;;11.10;8.60;;;;;;;;;;4418286;32;20206;-90
2022/08/30 00:52:01;;;;;;;17.98;10.00;;;;;;;;;;4418692;32;20558;-90
2022/08/30 00:54:29;;;;;;;15.15;8.85;;;;;;;;;;4418174;32;20662;-86
2022/08/30 00:56:57;;;;;;;19.23;9.23;;;;;;;;;;4418353;32;20619;-86
2022/08/30 00:59:27;;;;;;;12.32;9.35;;;;;;;;;;4418291;32;20205;-85
2022/08/30 01:01:56;;;;;;;10.82;8.48;;;;;;;;;;4418078;32;20641;-86
2022/08/30 01:04:26;;;;;;;14.60;8.65;;;;;;;;;;4417998;32;20304;-85
2022/08/30 01:06:54;;;;;;;13.32;8.00;;;;;;;;;;4418130;32;20644;-86
2022/08/30 01:09:23;;;;;;;16.30;8.70;;;;;;;;;;4419540;32;20534;-86
2022/08/30 01:11:51;;;;;;;16.90;9.13;;;;;;;;;;4420765;32;20503;-86
2022/08/30 01:14:20;;;;;;;18.35;9.68;;;;;;;;;;4420919;32;20561;-86
2022/08/30 01:16:49;;;;;;;11.63;8.07;;;;;;;;;;4420929;32;20564;-86
2022/08/30 01:19:30;;;;;;;10.52;8.80;;;;;;;;;;4420866;32;20310;-85
2022/08/30 01:22:04;;;;;;;13.68;9.18;;;;;;;;;;4421130;32;20617;-86
2022/08/30 01:24:34;;;;;;;10.82;9.00;;;;;;;;;;4421542;32;20662;-85
2022/08/30 01:27:02;;;;;;;13.95;10.10;;;;;;;;;;4420689;32;20553;-85
2022/08/30 01:29:29;;;;;;;12.98;8.48;;;;;;;;;;4420737;32;20515;-84
2022/08/30 01:31:57;;;;;;;10.57;8.13;;;;;;;;;;4420464;32;20523;-84
2022/08/30 01:34:24;;;;;;;14.48;9.40;;;;;;;;;;4420369;32;20740;-84
2022/08/30 01:36:55;;;;;;;11.60;8.20;;;;;;;;;;4421013;32;20629;-85
2022/08/30 01:39:23;;;;;;;13.10;7.93;;;;;;;;;;4423745;32;20248;-86
2022/08/30 01:41:52;;;;;;;25.23;8.18;;;;;;;;;;4422704;32;20594;-88
2022/08/30 01:44:20;;;;;;;10.25;8.55;;;;;;;;;;4420237;32;20764;-89
2022/08/30 01:46:48;;;;;;;11.12;7.43;;;;;;;;;;4420720;32;20625;-88
2022/08/30 01:49:19;;;;;;;16.35;8.60;;;;;;;;;;4421019;32;20657;-86
2022/08/30 01:51:46;;;;;;;17.92;8.60;;;;;;;;;;4420296;32;20244;-85
2022/08/30 01:54:14;;;;;;;15.00;7.80;;;;;;;;;;4420113;32;20532;-85
2022/08/30 01:56:41;;;;;;;13.05;8.48;;;;;;;;;;4420233;32;20627;-86
2022/08/30 01:59:10;;;;;;;13.38;8.20;;;;;;;;;;4420051;32;20333;-85
2022/08/30 02:01:38;;;;;;;11.95;7.72;;;;;;;;;;4419783;32;20530;-86
2022/08/30 02:04:07;;;;;;;12.48;8.30;;;;;;;;;;4419906;32;20578;-85
2022/08/30 02:06:34;;;;;;;11.68;8.35;;;;;;;;;;4419998;32;20209;-84
2022/08/30 02:09:02;;;;;;;11.20;7.45;;;;;;;;;;4420206;32;20642;-85
2022/08/30 02:11:30;;;;;;;17.87;10.65;;;;;;;;;;4420110;32;20314;-85
2022/08/30 02:13:57;;;;;;;20.83;13.38;;;;;;;;;;4420437;32;20566;-84
2022/08/30 02:16:27;;;;;;;13.73;10.45;;;;;;;;;;4421246;32;20598;-85
2022/08/30 02:18:56;;;;;;;14.65;10.35;;;;;;;;;;4420029;32;20263;-85
2022/08/30 02:21:24;;;;;;;11.90;9.07;;;;;;;;;;4420390;32;20635;-85
2022/08/30 02:23:52;;;;;;;12.37;9.23;;;;;;;;;;4419734;32;20300;-86
2022/08/30 02:26:20;;;;;;;13.55;9.25;;;;;;;;;;4419876;32;20522;-85
2022/08/30 02:28:49;;;;;;;12.57;8.23;;;;;;;;;;4419885;32;20611;-84
2022/08/30 02:31:16;;;;;;;9.40;8.48;;;;;;;;;;4420565;32;20272;-85
2022/08/30 02:33:46;;;;;;;16.50;9.15;;;;;;;;;;4419981;32;20676;-85
2022/08/30 02:36:14;;;;;;;12.70;9.02;;;;;;;;;;4419343;32;20548;-85
2022/08/30 02:38:42;;;;;;;12.77;8.50;;;;;;;;;;4419524;32;20729;-86
2022/08/30 02:41:09;;;;;;;14.05;8.02;;;;;;;;;;4419875;32;20551;-85
2022/08/30 02:43:37;;;;;;;15.73;9.65;;;;;;;;;;4419429;32;20536;-84
2022/08/30 02:46:05;;;;;;;9.85;8.00;;;;;;;;;;4419590;32;20236;-84
2022/08/30 02:48:33;;;;;;;14.27;9.00;;;;;;;;;;4419588;32;20675;-84
2022/08/30 02:51:06;;;;;;;12.15;8.57;;;;;;;;;;4419378;32;20485;-85
2022/08/30 02:53:34;;;;;;;12.68;8.88;;;;;;;;;;4419442;32;20736;-85
2022/08/30 02:56:02;;;;;;;13.27;8.65;;;;;;;;;;4419382;32;20366;-85
2022/08/30 02:58:30;;;;;;;13.32;7.82;;;;;;;;;;4419406;32;20613;-85
2022/08/30 03:00:57;;;;;;;11.63;8.00;;;;;;;;;;4419146;32;20634;-85
2022/08/30 03:03:25;;;;;;;12.75;9.38;;;;;;;;;;4419373;32;20646;-85
2022/08/30 03:05:52;;;;;;;9.55;8.50;;;;;;;;;;4419046;32;20667;-85
2022/08/30 03:08:21;;;;;;;13.65;8.80;;;;;;;;;;4419158;32;20605;-85
2022/08/30 03:10:49;;;;;;;15.13;10.02;;;;;;;;;;4419225;32;20555;-85
2022/08/30 03:13:16;;;;;;;12.57;7.87;;;;;;;;;;4419128;32;20566;-86
2022/08/30 03:15:44;;;;;;;12.60;8.90;;;;;;;;;;4418876;32;20514;-85
2022/08/30 03:18:11;;;;;;;15.88;10.50;;;;;;;;;;4418892;32;20719;-85
2022/08/30 03:20:41;;;;;;;18.45;9.40;;;;;;;;;;4419350;32;20594;-85
2022/08/30 03:23:08;;;;;;;12.85;9.30;;;;;;;;;;4418900;32;20662;-86
2022/08/30 03:25:38;;;;;;;11.93;9.38;;;;;;;;;;4419099;32;20244;-86
2022/08/30 03:28:06;;;;;;;11.65;8.80;;;;;;;;;;4418870;32;20650;-85
2022/08/30 03:30:34;;;;;;;12.45;8.82;;;;;;;;;;4419007;32;20209;-86
2022/08/30 03:33:03;;;;;;;14.93;9.35;;;;;;;;;;4418383;32;20723;-85
2022/08/30 03:35:31;;;;;;;17.10;9.50;;;;;;;;;;4419284;32;20612;-85
2022/08/30 03:37:59;;;;;;;15.80;9.80;;;;;;;;;;4418722;32;20646;-86
2022/08/30 03:40:26;;;;;;;12.52;9.10;;;;;;;;;;4419043;32;20566;-87
2022/08/30 03:42:55;;;;;;;20.33;9.35;;;;;;;;;;4419086;32;20237;-85
2022/08/30 03:45:23;;;;;;;12.63;10.02;;;;;;;;;;4418544;32;20491;-84
2022/08/30 03:47:50;;;;;;;12.75;9.65;;;;;;;;;;4418708;32;20677;-84
2022/08/30 03:50:21;;;;;;;20.42;9.02;;;;;;;;;;4418801;32;20461;-85
2022/08/30 03:52:48;;;;;;;21.67;9.65;;;;;;;;;;4418684;32;20582;-85
2022/08/30 03:55:17;;;;;;;15.73;9.77;;;;;;;;;;4418589;32;20538;-85
2022/08/30 03:57:44;;;;;;;14.15;9.77;;;;;;;;;;4418382;32;20334;-84
2022/08/30 04:00:15;;;;;;;17.83;10.55;;;;;;;;;;4418905;32;20284;-84
2022/08/30 04:02:42;;;;;;;13.15;9.57;;;;;;;;;;4418892;32;20623;-84
2022/08/30 04:05:11;;;;;;;17.65;10.90;;;;;;;;;;4418543;32;20288;-85
2022/08/30 04:07:39;;;;;;;17.58;9.50;;;;;;;;;;4418782;32;20644;-85
2022/08/30 04:10:09;;;;;;;12.18;9.20;;;;;;;;;;4418973;32;20572;-86
2022/08/30 04:12:37;;;;;;;21.00;11.52;;;;;;;;;;4418857;32;20245;-86
2022/08/30 04:15:06;;;;;;;14.95;10.20;;;;;;;;;;4419059;32;20538;-85
2022/08/30 04:17:36;;;;;;;16.65;10.60;;;;;;;;;;4418718;32;20663;-85
2022/08/30 04:20:04;;;;;;;19.62;10.13;;;;;;;;;;4418904;32;20604;-86
2022/08/30 04:22:31;;;;;;;14.32;9.60;;;;;;;;;;4418785;32;20729;-84
2022/08/30 04:24:59;;;;;;;16.85;10.95;;;;;;;;;;4418497;32;20197;-84
2022/08/30 04:27:26;;;;;;;22.17;10.40;;;;;;;;;;4418801;32;20645;-85
2022/08/30 04:29:54;;;;;;;20.27;11.32;;;;;;;;;;4418942;32;20566;-85
2022/08/30 04:32:23;;;;;;;18.73;10.10;;;;;;;;;;4418914;32;20664;-85
2022/08/30 04:34:57;;;;;;;14.63;10.40;;;;;;;;;;4418600;32;20512;-85
2022/08/30 04:37:25;;;;;;;15.77;9.68;;;;;;;;;;4418762;32;20531;-88
2022/08/30 04:39:56;;;;;;;17.73;11.52;;;;;;;;;;4419546;32;20558;-84
2022/08/30 04:42:24;;;;;;;20.92;11.45;;;;;;;;;;4420405;32;20638;-85
2022/08/30 04:44:52;;;;;;;16.92;10.65;;;;;;;;;;4422079;32;20594;-84
2022/08/30 04:47:19;;;;;;;16.70;11.48;;;;;;;;;;4424071;32;20859;-86
2022/08/30 04:49:47;;;;;;;15.68;10.80;;;;;;;;;;4426384;32;20558;-84
2022/08/30 04:52:16;;;;;;;14.68;10.73;;;;;;;;;;4428062;32;20547;-86
2022/08/30 04:54:44;;;;;;;18.95;11.27;;;;;;;;;;4421972;32;20611;-85
2022/08/30 04:57:11;;;;;;;17.02;11.12;;;;;;;;;;4421370;32;20570;-85
2022/08/30 04:59:39;;;;;;;18.80;11.93;;;;;;;;;;4421971;32;20531;-84
2022/08/30 05:02:07;;;;;;;19.45;10.98;;;;;;;;;;4421344;32;20645;-85
2022/08/30 05:04:36;;;;;;;15.20;11.18;;;;;;;;;;4421771;32;20243;-85
2022/08/30 05:07:03;;;;;;;20.65;11.65;;;;;;;;;;4421361;32;20292;-85
2022/08/30 05:09:33;;;;;;;16.77;11.00;;;;;;;;;;4421691;32;20632;-85
2022/08/30 05:12:00;;;;;;;15.23;10.15;;;;;;;;;;4422302;32;20597;-85
2022/08/30 05:14:28;;;;;;;18.30;11.80;;;;;;;;;;4422448;32;20529;-89
2022/08/30 05:16:55;;;;;;;15.65;10.63;;;;;;;;;;4422915;32;20530;-88
2022/08/30 05:19:24;;;;;;;27.50;12.77;;;;;;;;;;4421287;32;20489;-86
2022/08/30 05:21:51;;;;;;;23.25;11.12;;;;;;;;;;4421462;32;20572;-87
2022/08/30 05:24:19;;;;;;;25.77;11.27;;;;;;;;;;4420849;32;20586;-84
2022/08/30 05:26:47;;;;;;;15.63;10.25;;;;;;;;;;4421028;32;20636;-84
2022/08/30 05:29:15;;;;;;;20.70;10.98;;;;;;;;;;4420835;32;20696;-84
2022/08/30 05:31:44;;;;;;;26.62;11.63;;;;;;;;;;4421026;32;20582;-85
2022/08/30 05:34:12;;;;;;;31.12;11.25;;;;;;;;;;4420997;32;20607;-85
2022/08/30 05:36:40;;;;;;;21.02;11.55;;;;;;;;;;4420920;32;20511;-84
2022/08/30 05:39:10;;;;;;;24.60;11.95;;;;;;;;;;4421308;32;20595;-84
2022/08/30 05:41:38;;;;;;;24.10;11.38;;;;;;;;;;4421287;32;20538;-84
2022/08/30 05:44:08;;;;;;;22.48;17.67;;;;;;;;;;4420894;32;20508;-84
2022/08/30 05:46:38;;;;;;;36.42;22.13;;;;;;;;;;4420795;32;20615;-85
2022/08/30 05:49:07;;;;;;;38.15;20.02;;;;;;;;;;4420882;32;20578;-85
2022/08/30 05:51:36;;;;;;;21.17;15.00;;;;;;;;;;4421105;32;20379;-85
2022/08/30 05:54:04;;;;;;;15.93;11.48;;;;;;;;;;4420382;32;20570;-84
2022/08/30 05:56:34;;;;;;;36.22;12.50;;;;;;;;;;4420403;32;20660;-85
2022/08/30 05:59:03;;;;;;;12.57;9.35;;;;;;;;;;4420383;32;20586;-83
2022/08/30 06:01:34;;;;;;;11.52;9.57;;;;;;;;;;4420375;32;20529;-85
2022/08/30 06:04:04;;;;;;;23.50;11.88;;;;;;;;;;4420534;32;20303;-84
2022/08/30 06:06:33;;;;;;;18.75;11.38;;;;;;;;;;4420511;32;20248;-85
2022/08/30 06:09:01;;;;;;;21.15;10.27;;;;;;;;;;4421769;32;20649;-83
2022/08/30 06:11:29;;;;;;;17.45;11.40;;;;;;;;;;4420780;32;20607;-83
2022/08/30 06:13:57;;;;;;;14.63;10.85;;;;;;;;;;4420249;32;20619;-83
2022/08/30 06:16:26;;;;;;;21.15;12.05;;;;;;;;;;4420343;32;20295;-83
2022/08/30 06:18:57;;;;;;;18.30;10.30;;;;;;;;;;4420176;32;20300;-83
2022/08/30 06:21:27;;;;;;;13.98;10.48;;;;;;;;;;4420190;32;20561;-84
2022/08/30 06:23:56;;;;;;;14.32;9.98;;;;;;;;;;4420112;32;20553;-83
2022/08/30 06:26:24;;;;;;;24.92;11.70;;;;;;;;;;4420163;32;20586;-83
2022/08/30 06:28:51;;;;;;;20.02;12.35;;;;;;;;;;4420157;32;20630;-83
2022/08/30 06:31:20;;;;;;;13.55;11.55;;;;;;;;;;4420145;32;20546;-84
2022/08/30 06:33:48;;;;;;;18.77;12.25;;;;;;;;;;4419959;32;20577;-83
2022/08/30 06:36:20;;;;;;;19.62;11.27;;;;;;;;;;4420104;32;20526;-84
2022/08/30 06:38:50;;;;;;;16.45;11.65;;;;;;;;;;4420046;32;20301;-83
2022/08/30 06:41:21;;;;;;;15.77;12.23;;;;;;;;;;4420155;32;20542;-84
2022/08/30 06:43:48;;;;;;;21.65;12.98;;;;;;;;;;4419818;32;20347;-84
2022/08/30 06:46:19;;;;;;;18.52;11.23;;;;;;;;;;4420162;32;20640;-84
2022/08/30 06:48:46;;;;;;;14.85;11.38;;;;;;;;;;4419784;32;20638;-84
2022/08/30 06:51:14;;;;;;;17.83;10.93;;;;;;;;;;4420039;32;20201;-83
2022/08/30 06:53:44;;;;;;;19.23;12.63;;;;;;;;;;4419956;32;20554;-84
2022/08/30 06:56:12;;;;;;;17.55;10.60;;;;;;;;;;4419754;32;20542;-83
2022/08/30 06:58:41;;;;;;;13.50;10.88;;;;;;;;;;4419957;32;20656;-83
2022/08/30 07:01:13;;;;;;;18.55;12.13;;;;;;;;;;4419640;32;20602;-83
2022/08/30 07:03:41;;;;;;;15.18;11.07;;;;;;;;;;4420021;32;20263;-87
2022/08/30 07:06:09;;;;;;;12.37;10.75;;;;;;;;;;4420083;32;20543;-88
2022/08/30 07:08:37;;;;;;;18.62;10.00;;;;;;;;;;4420486;32;20605;-86
2022/08/30 07:11:07;;;;;;;16.20;11.43;;;;;;;;;;4419300;32;20537;-84
2022/08/30 07:13:35;;;;;;;14.57;10.35;;;;;;;;;;4419906;32;20676;-84
2022/08/30 07:16:09;;;;;;;23.60;10.90;;;;;;;;;;4419571;32;20503;-83
2022/08/30 07:18:53;;;;;;;22.48;10.95;;;;;;;;;;4419518;32;20538;-84
2022/08/30 07:21:23;;;;;;;22.20;10.32;;;;;;;;;;4421556;32;20534;-84
2022/08/30 07:23:52;;;;;;;13.70;10.02;;;;;;;;;;4419581;32;20620;-84
2022/08/30 07:26:23;;;;;;;21.08;10.63;;;;;;;;;;4419436;32;20601;-83
2022/08/30 07:28:51;;;;;;;14.52;9.95;;;;;;;;;;4419517;32;20564;-83
2022/08/30 07:31:19;;;;;;;17.05;9.95;;;;;;;;;;4419492;32;20316;-84
2022/08/30 07:33:48;;;;;;;19.10;11.02;;;;;;;;;;4419459;32;20660;-82
2022/08/30 07:36:17;;;;;;;22.50;10.93;;;;;;;;;;4419163;32;20495;-84
2022/08/30 07:38:46;;;;;;;21.35;10.48;;;;;;;;;;4419046;32;20605;-83
2022/08/30 07:41:18;;;;;;;16.17;9.75;;;;;;;;;;4419111;32;20562;-83
2022/08/30 07:43:48;;;;;;;16.75;10.63;;;;;;;;;;4418940;32;20570;-84
2022/08/30 07:46:16;;;;;;;15.25;10.20;;;;;;;;;;4419007;32;20622;-83
2022/08/30 07:48:44;;;;;;;17.25;10.07;;;;;;;;;;4419286;32;20634;-84
2022/08/30 07:51:14;;;;;;;13.80;10.20;;;;;;;;;;4419707;32;20543;-84
2022/08/30 07:53:42;;;;;;;20.95;10.00;;;;;;;;;;4419419;32;20638;-83
2022/08/30 07:56:09;;;;;;;19.35;9.90;;;;;;;;;;4419304;32;20276;-84
2022/08/30 07:58:38;;;;;;;17.35;9.48;;;;;;;;;;4419190;32;20582;-86
2022/08/30 08:01:10;;;;;;;19.98;10.02;;;;;;;;;;4418736;32;20310;-83
2022/08/30 08:03:39;;;;;;;25.02;10.00;;;;;;;;;;4419096;32;20539;-88
2022/08/30 08:06:08;;;;;;;15.27;9.40;;;;;;;;;;4419302;32;20514;-84
2022/08/30 08:08:36;;;;;;;15.50;9.43;;;;;;;;;;4419072;32;20252;-83
2022/08/30 08:11:07;;;;;;;15.68;8.50;;;;;;;;;;4419149;32;20318;-84
2022/08/30 08:13:36;;;;;;;13.57;9.02;;;;;;;;;;4419543;32;20606;-84
2022/08/30 08:16:04;;;;;;;16.00;8.52;;;;;;;;;;4418986;32;20539;-83
2022/08/30 08:18:33;;;;;;;18.05;10.70;;;;;;;;;;4421113;32;20574;-84
2022/08/30 08:21:01;;;;;;;13.48;9.70;;;;;;;;;;4422229;32;20587;-84
2022/08/30 08:23:29;;;;;;;16.75;9.13;;;;;;;;;;4423602;32;20614;-84
2022/08/30 08:25:57;;;;;;;15.80;8.73;;;;;;;;;;4422771;32;20546;-83
2022/08/30 08:28:25;;;;;;;20.12;9.57;;;;;;;;;;4421994;32;20656;-84
2022/08/30 08:30:52;;;;;;;15.63;9.75;;;;;;;;;;4422144;32;20561;-84
2022/08/30 08:33:20;;;;;;;12.50;9.30;;;;;;;;;;4422106;32;20637;-84
2022/08/30 08:35:49;;;;;;;10.75;8.98;;;;;;;;;;4422433;32;20476;-83
2022/08/30 08:38:17;;;;;;;12.55;8.25;;;;;;;;;;4421905;32;20562;-84
2022/08/30 08:40:55;;;;;;;12.88;8.98;;;;;;;;;;4422232;32;20743;-83
2022/08/30 08:43:26;;;;;;;16.20;8.52;;;;;;;;;;4422079;32;20337;-84
2022/08/30 08:46:00;;;;;;;14.30;8.73;;;;;;;;;;4422176;32;20537;-84
2022/08/30 08:48:33;;;;;;;12.52;9.18;;;;;;;;;;4421991;32;20566;-84
2022/08/30 08:53:55;;;;;;;17.52;9.20;;;;;;;;;;4421989;32;20281;-84
2022/08/30 08:56:23;;;;;;;13.65;8.32;;;;;;;;;;4422368;32;20514;-84
2022/08/30 08:58:53;;;;;;;16.77;9.35;;;;;;;;;;4421492;32;20220;-84
2022/08/30 09:01:23;;;;;;;13.73;7.95;;;;;;;;;;4421757;32;20558;-84
2022/08/30 09:03:52;;;;;;;17.20;8.25;;;;;;;;;;4421668;32;20557;-84
2022/08/30 09:06:45;;;;;;;12.75;8.40;;;;;;;;;;4421744;32;20623;-85
2022/08/30 09:09:13;;;;;;;15.88;8.73;;;;;;;;;;4421762;32;20646;-84
2022/08/30 09:11:42;;;;;;;21.95;8.43;;;;;;;;;;4421578;32;20543;-84
2022/08/30 09:14:13;;;;;;;20.12;7.62;;;;;;;;;;4421745;32;20530;-84
2022/08/30 09:16:54;;;;;;;12.80;7.70;;;;;;;;;;4421609;32;20522;-84
2022/08/30 09:19:33;;;;;;;10.77;7.07;;;;;;;;;;4421408;32;20574;-83
2022/08/30 09:22:05;;;;;;;13.05;6.45;;;;;;;;;;4421160;32;20592;-84
2022/08/30 09:24:42;;;;;;;12.82;7.78;;;;;;;;;;4421544;32;20603;-84
2022/08/30 09:27:24;;;;;;;15.02;6.90;;;;;;;;;;4421107;32;20498;-83
2022/08/30 09:29:55;;;;;;;12.57;8.07;;;;;;;;;;4421218;32;20562;-85
2022/08/30 09:32:29;;;;;;;17.70;6.72;;;;;;;;;;4421626;32;20666;-86
2022/08/30 09:34:57;;;;;;;12.75;7.50;;;;;;;;;;4426901;32;20323;-80
2022/08/30 09:37:33;;;;;;;12.35;7.57;;;;;;;;;;4427667;32;20566;-80
2022/08/30 09:40:01;;;;;;;14.27;7.87;;;;;;;;;;4423660;32;20621;-84
2022/08/30 09:42:30;;;;;;;12.10;6.97;;;;;;;;;;4421428;32;20614;-84
2022/08/30 09:45:10;;;;;;;13.18;6.78;;;;;;;;;;4421495;32;20535;-84
2022/08/30 09:47:40;;;;;;;12.85;7.53;;;;;;;;;;4420868;32;20566;-85
2022/08/30 09:50:11;;;;;;;17.12;7.40;;;;;;;;;;4421442;32;20239;-83
2022/08/30 09:53:10;;;;;;;18.73;7.75;;;;;;;;;;4421622;32;20307;-84
2022/08/30 09:56:03;;;;;;;14.80;7.32;;;;;;;;;;4421175;32;20577;-83
2022/08/30 09:58:48;;;;;;;11.00;7.15;;;;;;;;;;4419313;32;20651;-83
2022/08/30 10:01:22;;;;;;;14.70;7.82;;;;;;;;;;4421915;32;20563;-82
2022/08/30 10:03:56;;;;;;;14.75;7.12;;;;;;;;;;4421600;32;20263;-86
2022/08/30 10:06:32;;;;;;;20.50;6.75;;;;;;;;;;4420724;32;20664;-83
2022/08/30 10:09:13;;;;;;;17.58;8.13;;;;;;;;;;4420975;32;20507;-84
2022/08/30 10:11:47;;;;;;;22.13;8.82;;;;;;;;;;4421433;32;20652;-83
2022/08/30 10:14:37;;;;;;;13.48;7.47;;;;;;;;;;4420609;32;20524;-82
2022/08/30 10:17:12;;;;;;;17.02;7.82;;;;;;;;;;4421218;32;20536;-83
2022/08/30 10:19:52;;;;;;;17.70;8.18;;;;;;;;;;4421059;32;20261;-84
2022/08/30 10:22:28;;;;;;;13.62;7.28;;;;;;;;;;4421877;32;20704;-84
2022/08/30 10:25:07;;;;;;;11.27;7.18;;;;;;;;;;4421945;32;20573;-85
2022/08/30 10:27:42;;;;;;;11.57;7.53;;;;;;;;;;4422396;32;20287;-82
2022/08/30 10:30:12;;;;;;;16.08;7.80;;;;;;;;;;4421566;32;20246;-84
2022/08/30 10:32:46;;;;;;;9.70;7.47;;;;;;;;;;4421066;32;20570;-84
2022/08/30 10:35:16;;;;;;;13.65;6.82;;;;;;;;;;4421629;32;20594;-84
2022/08/30 10:37:48;;;;;;;14.80;7.20;;;;;;;;;;4421274;32;20288;-81
2022/08/30 10:43:23;;;;;;;17.85;6.65;;;;;;;;;;4407324;32;20214;-83
2022/08/30 10:45:53;;;;;;;14.30;7.70;;;;;;;;;;4420527;32;20602;-83
2022/08/30 10:48:25;;;;;;;10.32;6.70;;;;;;;;;;4421410;32;20530;-84
2022/08/30 10:50:59;;;;;;;16.62;7.37;;;;;;;;;;4420823;32;20658;-84
2022/08/30 10:53:35;;;;;;;20.80;8.32;;;;;;;;;;4420502;32;20488;-84
2022/08/30 10:56:08;;;;;;;19.33;9.20;;;;;;;;;;4420355;32;20335;-84
2022/08/30 10:58:39;;;;;;;21.67;8.13;;;;;;;;;;4420175;32;20601;-84
2022/08/30 11:01:32;;;;;;;13.68;7.60;;;;;;;;;;4420546;32;20682;-83
2022/08/30 11:04:36;;;;;;;16.10;7.03;;;;;;;;;;4420211;32;20614;-83
2022/08/30 11:07:17;;;;;;;19.35;7.28;;;;;;;;;;4400870;32;20220;-85
2022/08/30 11:10:07;;;;;;;14.52;7.85;;;;;;;;;;4420134;32;20270;-83
2022/08/30 11:12:43;;;;;;;14.05;7.62;;;;;;;;;;4420458;32;20606;-84
2022/08/30 11:15:18;;;;;;;17.27;7.85;;;;;;;;;;4420163;32;20593;-84
2022/08/30 11:17:56;;;;;;;16.80;7.85;;;;;;;;;;4420855;32;20602;-84
2022/08/30 11:20:31;;;;;;;20.98;7.68;;;;;;;;;;4420230;32;20611;-85
2022/08/30 11:23:28;;;;;;;22.87;8.65;;;;;;;;;;4420087;32;20358;-86
2022/08/30 11:26:00;;;;;;;12.02;7.55;;;;;;;;;;4410461;32;20574;-84
2022/08/30 11:29:01;;;;;;;20.80;7.65;;;;;;;;;;4420548;32;20610;-82
2022/08/30 11:31:35;;;;;;;15.45;7.45;;;;;;;;;;4420614;32;20697;-83
2022/08/30 11:34:03;;;;;;;16.25;7.70;;;;;;;;;;4420293;32;20621;-83
2022/08/30 11:37:07;;;;;;;14.87;8.13;;;;;;;;;;4419987;32;20534;-84
2022/08/30 11:39:59;;;;;;;13.82;8.57;;;;;;;;;;4419925;32;20542;-84
2022/08/30 11:42:44;;;;;;;17.90;8.27;;;;;;;;;;4419316;32;20635;-83
2022/08/30 11:45:50;;;;;;;27.67;8.38;;;;;;;;;;4418763;32;20567;-85
2022/08/30 11:48:50;;;;;;;15.25;6.70;;;;;;;;;;4420396;32;20715;-83
2022/08/30 11:51:52;;;;;;;16.50;7.90;;;;;;;;;;4421168;32;20547;-84
2022/08/30 11:54:31;;;;;;;10.30;5.97;;;;;;;;;;4419461;32;20687;-84
2022/08/30 11:57:07;;;;;;;15.50;6.55;;;;;;;;;;4419810;32;20678;-82
2022/08/30 11:59:47;;;;;;;17.70;7.60;;;;;;;;;;4419923;32;20634;-86
2022/08/30 12:02:52;;;;;;;19.00;6.65;;;;;;;;;;4419298;32;20653;-86
2022/08/30 12:05:50;;;;;;;15.65;7.40;;;;;;;;;;4419561;32;20338;-84
2022/08/30 12:08:42;;;;;;;10.68;7.22;;;;;;;;;;4409670;32;20680;-84
2022/08/30 12:11:56;;;;;;;16.35;6.60;;;;;;;;;;4419157;32;20617;-83
2022/08/30 12:14:38;;;;;;;11.00;6.28;;;;;;;;;;4392193;32;20704;-84
2022/08/30 12:19:59;;;;;;;11.57;6.70;;;;;;;;;;4402884;32;20304;-84
2022/08/30 12:22:30;;;;;;;17.17;6.37;;;;;;;;;;4419066;32;20507;-83
2022/08/30 12:24:57;;;;;;;18.73;7.93;;;;;;;;;;4419128;32;20580;-84
2022/08/30 12:27:27;;;;;;;24.17;7.70;;;;;;;;;;4419715;32;20618;-84
2022/08/30 12:29:58;;;;;;;22.17;7.60;;;;;;;;;;4419000;32;20649;-84
2022/08/30 12:32:27;;;;;;;14.23;7.95;;;;;;;;;;4419356;32;20519;-84
2022/08/30 12:34:56;;;;;;;16.42;10.13;;;;;;;;;;4419091;32;20585;-84
2022/08/30 12:37:26;;;;;;;20.37;7.15;;;;;;;;;;4418839;32;20538;-84
2022/08/30 12:40:04;;;;;;;13.32;7.93;;;;;;;;;;4419075;32;20609;-85
2022/08/30 12:42:34;;;;;;;19.15;6.93;;;;;;;;;;4419055;32;20283;-84
2022/08/30 12:45:07;;;;;;;20.60;8.02;;;;;;;;;;4419594;32;20555;-84
2022/08/30 12:47:44;;;;;;;22.17;8.85;;;;;;;;;;4419679;32;20626;-85
2022/08/30 12:50:15;;;;;;;20.17;7.15;;;;;;;;;;4419791;32;20641;-84
2022/08/30 12:52:47;;;;;;;15.80;6.87;;;;;;;;;;4419747;32;20256;-84
2022/08/30 12:55:18;;;;;;;12.23;6.12;;;;;;;;;;4419514;32;20668;-85
2022/08/30 12:57:59;;;;;;;12.00;6.70;;;;;;;;;;4419253;32;20623;-84
2022/08/30 13:00:29;;;;;;;14.40;6.65;;;;;;;;;;4418612;32;20574;-83
2022/08/30 13:02:58;;;;;;;14.52;7.60;;;;;;;;;;4419241;32;20583;-84
2022/08/30 13:05:44;;;;;;;8.85;6.32;;;;;;;;;;4420530;32;20671;-84
2022/08/30 13:08:21;;;;;;;14.05;6.55;;;;;;;;;;4422128;32;20602;-83
2022/08/30 13:10:57;;;;;;;16.95;7.85;;;;;;;;;;4421696;32;20602;-85
2022/08/30 13:13:41;;;;;;;14.80;6.47;;;;;;;;;;4422163;32;20617;-84
2022/08/30 13:16:12;;;;;;;11.45;6.15;;;;;;;;;;4422765;32;20570;-86
2022/08/30 13:18:40;;;;;;;12.20;6.87;;;;;;;;;;4421963;32;20620;-84
2022/08/30 13:21:19;;;;;;;14.07;6.35;;;;;;;;;;4421718;32;20606;-84
2022/08/30 13:23:46;;;;;;;14.38;7.37;;;;;;;;;;4422176;32;20515;-84
2022/08/30 13:26:16;;;;;;;9.70;6.75;;;;;;;;;;4422150;32;20649;-84
2022/08/30 13:28:53;;;;;;;16.75;7.28;;;;;;;;;;4423289;32;20476;-87
2022/08/30 13:31:22;;;;;;;15.88;7.43;;;;;;;;;;4423137;32;20638;-89
2022/08/30 13:33:51;;;;;;;15.70;7.12;;;;;;;;;;4423201;32;20256;-87
2022/08/30 13:36:21;;;;;;;16.87;7.53;;;;;;;;;;4423062;32;21077;-85
2022/08/30 13:38:49;;;;;;;18.48;8.98;;;;;;;;;;4422483;32;20523;-83
2022/08/30 13:41:20;;;;;;;15.95;8.93;;;;;;;;;;4422132;32;20233;-83
2022/08/30 13:43:48;;;;;;;17.33;9.32;;;;;;;;;;4421827;32;20632;-82
2022/08/30 13:46:17;;;;;;;11.98;8.10;;;;;;;;;;4420974;32;20610;-83
2022/08/30 13:48:45;;;;;;;9.65;7.03;;;;;;;;;;4420895;32;20508;-85
2022/08/30 13:51:13;;;;;;;11.60;8.07;;;;;;;;;;4420811;32;20606;-83
2022/08/30 13:53:41;;;;;;;11.07;7.68;;;;;;;;;;4421062;32;20539;-81
2022/08/30 13:56:09;;;;;;;14.20;8.52;;;;;;;;;;4420778;32;20500;-83
2022/08/30 13:58:38;;;;;;;19.27;8.70;;;;;;;;;;4420770;32;20616;-82
2022/08/30 14:01:06;;;;;;;14.15;9.65;;;;;;;;;;4420595;32;20530;-82
2022/08/30 14:03:33;;;;;;;17.83;9.95;;;;;;;;;;4420830;32;20530;-84
2022/08/30 14:06:01;;;;;;;17.83;10.07;;;;;;;;;;4420823;32;20201;-83
2022/08/30 14:08:30;;;;;;;13.32;9.15;;;;;;;;;;4421833;32;20272;-83
2022/08/30 14:10:59;;;;;;;19.17;10.05;;;;;;;;;;4423941;32;20620;-86
2022/08/30 14:13:27;;;;;;;12.63;9.38;;;;;;;;;;4433266;32;20210;-86
2022/08/30 14:15:59;;;;;;;13.25;9.63;;;;;;;;;;4433884;32;20598;-87
2022/08/30 14:18:27;;;;;;;14.77;9.82;;;;;;;;;;4433249;32;20205;-79
2022/08/30 14:20:56;;;;;;;22.42;11.80;;;;;;;;;;4429072;32;20570;-78
2022/08/30 14:23:24;;;;;;;18.87;11.15;;;;;;;;;;4425813;32;20516;-83
2022/08/30 14:25:54;;;;;;;16.20;11.15;;;;;;;;;;4420890;32;20503;-81
2022/08/30 14:28:23;;;;;;;19.75;11.27;;;;;;;;;;4420536;32;20672;-82
2022/08/30 14:30:53;;;;;;;16.58;10.90;;;;;;;;;;4420678;32;20598;-81
2022/08/30 14:33:22;;;;;;;20.48;11.32;;;;;;;;;;4420812;32;20637;-80
2022/08/30 14:35:50;;;;;;;16.77;11.50;;;;;;;;;;4420683;32;20344;-82
2022/08/30 14:38:17;;;;;;;16.95;12.13;;;;;;;;;;4420422;32;20656;-82
2022/08/30 14:40:45;;;;;;;19.02;11.77;;;;;;;;;;4421581;32;20542;-80
2022/08/30 14:43:12;;;;;;;14.98;11.82;;;;;;;;;;4421506;32;20615;-82
2022/08/30 14:45:40;;;;;;;26.75;12.43;;;;;;;;;;4420913;32;20612;-82
2022/08/30 14:48:18;;;;;;;15.70;10.88;;;;;;;;;;4420943;32;20574;-84
2022/08/30 14:50:49;;;;;;;13.00;9.25;;;;;;;;;;4421739;32;20201;-84
2022/08/30 14:53:16;;;;;;;18.58;10.50;;;;;;;;;;4421553;32;20272;-86
2022/08/30 14:55:44;;;;;;;22.33;12.82;;;;;;;;;;4422472;32;20269;-83
2022/08/30 14:58:16;;;;;;;20.98;11.35;;;;;;;;;;4421335;32;20229;-83
2022/08/30 15:00:49;;;;;;;18.75;11.25;;;;;;;;;;4420694;32;20237;-83